F/V Oceanie — FVBW — position and weather

sailwx.info

Track history (hours):
 
Tides and Currents Weather Stations Pressure Air Temp Water Temp Dewpoint Dewpoint Depression Visibility Wind Speed Wind Dir Waves Ship Positions

F/V Oceanie

Last reported at 2014-Oct-31 04:33 UTC. Time now 2014-Oct-31 05:02 UTC.
Position N 47°31' W 003°22'.

Length 16 m.

Type: Fishing. MMSI: 228370000.

Date/timePositionNaut miles runAvg speedWind from/ knotsBaromVisibWave heightAir tempDewpointWater temp
2014-Oct-31 04:33N 47°31' W 003°22'8 8.2
2014-Oct-31 03:34N 47°39' W 003°22'4 4.2
2014-Oct-31 02:34N 47°44' W 003°22'0 0.1
2014-Oct-31 01:34N 47°44' W 003°22'0 0.0
2014-Oct-31 00:34N 47°44' W 003°22'6 5.6
2014-Oct-30 23:34N 47°38' W 003°23'10 8.7
2014-Oct-30 22:24N 47°28' W 003°27'4 4.4
2014-Oct-30 21:34N 47°25' W 003°28'1 1.0
2014-Oct-30 20:20N 47°25' W 003°26'2 3.0
2014-Oct-30 19:33N 47°24' W 003°23'5 1.6
2014-Oct-30 16:25N 47°26' W 003°15'1 0.6
2014-Oct-30 14:32N 47°25' W 003°15'1 0.1
2014-Oct-30 09:05N 47°25' W 003°16'1 1.4
2014-Oct-30 08:22N 47°24' W 003°16'1 1.2
2014-Oct-30 07:32N 47°25' W 003°16'2 0.1
2014-Oct-29 17:05N 47°25' W 003°18'1 1.9
2014-Oct-29 16:29N 47°25' W 003°16'1 0.9
2014-Oct-29 15:33N 47°24' W 003°17'3 2.5
2014-Oct-29 14:15N 47°25' W 003°22'0 0.3
2014-Oct-29 12:33N 47°25' W 003°21'1 1.2
2014-Oct-29 11:30N 47°25' W 003°20'1 1.0
2014-Oct-29 10:34N 47°25' W 003°19'4 3.6
2014-Oct-29 09:32N 47°28' W 003°22'9 9.0
2014-Oct-29 08:33N 47°36' W 003°22'7 7.3
2014-Oct-29 07:34N 47°44' W 003°22'0 0.0
2014-Oct-29 06:34N 47°44' W 003°22'9 8.8
2014-Oct-29 05:33N 47°35' W 003°22'9 9.0
2014-Oct-29 04:34N 47°26' W 003°22'2 0.4
2014-Oct-28 23:14N 47°24' W 003°21'9 0.5
2014-Oct-28 04:06N 47°33' W 003°23'5 8.7
2014-Oct-28 03:33N 47°37' W 003°22'6 6.4
2014-Oct-28 02:33N 47°44' W 003°22'  
2014-Oct-25 01:27N 47°44' W 003°22'0 0.0
2014-Oct-25 00:33N 47°44' W 003°22'9 8.9
2014-Oct-24 23:33N 47°35' W 003°23'1 0.0
2014-Oct-24 01:30N 47°34' W 003°23'8 8.1
2014-Oct-24 00:33N 47°42' W 003°22'0 0.3
2014-Oct-23 23:33N 47°42' W 003°22'9 0.4
2014-Oct-23 02:29N 47°33' W 003°25'8 8.7
2014-Oct-23 01:33N 47°41' W 003°22'1 1.1
2014-Oct-23 00:33N 47°42' W 003°22'8 8.3
2014-Oct-22 23:34N 47°35' W 003°28'3 0.1
2014-Oct-22 03:31N 47°32' W 003°26'9 9.0
2014-Oct-22 02:33N 47°41' W 003°22'  
Track history (hours):
 
Tides and Currents Weather Stations Pressure Air Temp Water Temp Dewpoint Dewpoint Depression Visibility Wind Speed Wind Dir Waves Ship Positions

F/V Oceanie

Last reported at 2014-Oct-31 04:33 UTC. Time now 2014-Oct-31 05:02 UTC.
Position N 47°31' W 003°22'.

Length 16 m.

Type: Fishing. MMSI: 228370000.

Date/timePositionNaut miles runAvg speedWind from/ knotsBaromVisibWave heightAir tempDewpointWater temp
2014-Oct-31 04:33N 47°31' W 003°22'8 8.2
2014-Oct-31 03:34N 47°39' W 003°22'4 4.2
2014-Oct-31 02:34N 47°44' W 003°22'0 0.1
2014-Oct-31 01:34N 47°44' W 003°22'0 0.0
2014-Oct-31 00:34N 47°44' W 003°22'6 5.6
2014-Oct-30 23:34N 47°38' W 003°23'10 8.7
2014-Oct-30 22:24N 47°28' W 003°27'4 4.4
2014-Oct-30 21:34N 47°25' W 003°28'1 1.0
2014-Oct-30 20:20N 47°25' W 003°26'2 3.0
2014-Oct-30 19:33N 47°24' W 003°23'5 1.6
2014-Oct-30 16:25N 47°26' W 003°15'1 0.6
2014-Oct-30 14:32N 47°25' W 003°15'1 0.1
2014-Oct-30 09:05N 47°25' W 003°16'1 1.4
2014-Oct-30 08:22N 47°24' W 003°16'1 1.2
2014-Oct-30 07:32N 47°25' W 003°16'2 0.1
2014-Oct-29 17:05N 47°25' W 003°18'1 1.9
2014-Oct-29 16:29N 47°25' W 003°16'1 0.9
2014-Oct-29 15:33N 47°24' W 003°17'3 2.5
2014-Oct-29 14:15N 47°25' W 003°22'0 0.3
2014-Oct-29 12:33N 47°25' W 003°21'1 1.2
2014-Oct-29 11:30N 47°25' W 003°20'1 1.0
2014-Oct-29 10:34N 47°25' W 003°19'4 3.6
2014-Oct-29 09:32N 47°28' W 003°22'9 9.0
2014-Oct-29 08:33N 47°36' W 003°22'7 7.3
2014-Oct-29 07:34N 47°44' W 003°22'0 0.0
2014-Oct-29 06:34N 47°44' W 003°22'9 8.8
2014-Oct-29 05:33N 47°35' W 003°22'9 9.0
2014-Oct-29 04:34N 47°26' W 003°22'2 0.4
2014-Oct-28 23:14N 47°24' W 003°21'9 0.5
2014-Oct-28 04:06N 47°33' W 003°23'5 8.7
2014-Oct-28 03:33N 47°37' W 003°22'6 6.4
2014-Oct-28 02:33N 47°44' W 003°22'  
2014-Oct-25 01:27N 47°44' W 003°22'0 0.0
2014-Oct-25 00:33N 47°44' W 003°22'9 8.9
2014-Oct-24 23:33N 47°35' W 003°23'1 0.0
2014-Oct-24 01:30N 47°34' W 003°23'8 8.1
2014-Oct-24 00:33N 47°42' W 003°22'0 0.3
2014-Oct-23 23:33N 47°42' W 003°22'9 0.4
2014-Oct-23 02:29N 47°33' W 003°25'8 8.7
2014-Oct-23 01:33N 47°41' W 003°22'1 1.1
2014-Oct-23 00:33N 47°42' W 003°22'8 8.3
2014-Oct-22 23:34N 47°35' W 003°28'3 0.1
2014-Oct-22 03:31N 47°32' W 003°26'9 9.0
2014-Oct-22 02:33N 47°41' W 003°22'  

Dump ship's entire track history